Time;durP1;ratioP1;P1;durP2;ratioP2;P2;SDS_P1;SDS_P2;PMS_P1;PMS_P2;Temp;Humidity;BMP_temperature;BMP_pressure;BME280_temperature;BME280_humidity;BME280_pressure;Samples;Min_cycle;Max_cycle;Signal;HPM_P1;HPM_P2
2021/10/23 00:00:59;;;;;;;8.48;2.50;;;;;;;2.75;93.25;96244.00;5036253;28;20099;-85
2021/10/23 00:03:25;;;;;;;6.35;2.72;;;;;;;2.76;94.09;96256.00;5056971;28;20044;-85
2021/10/23 00:05:51;;;;;;;7.82;2.97;;;;;;;2.71;93.86;96250.59;5035153;28;20052;-83
2021/10/23 00:08:16;;;;;;;6.82;2.60;;;;;;;2.81;93.38;96258.78;5041375;28;20069;-84
2021/10/23 00:10:42;;;;;;;7.85;2.70;;;;;;;2.77;93.52;96254.97;5036993;28;20701;-84
2021/10/23 00:13:07;;;;;;;8.27;2.85;;;;;;;2.70;94.11;96261.97;5049723;28;20045;-84
2021/10/23 00:15:33;;;;;;;9.20;2.60;;;;;;;2.77;93.97;96267.97;5033019;28;20045;-83
2021/10/23 00:17:59;;;;;;;6.78;2.60;;;;;;;2.75;93.14;96259.59;5031971;28;20053;-84
2021/10/23 00:20:25;;;;;;;7.90;2.60;;;;;;;2.71;94.05;96263.59;5050724;28;20045;-84
2021/10/23 00:22:51;;;;;;;9.43;2.63;;;;;;;2.70;93.25;96261.97;5049924;28;20098;-84
2021/10/23 00:25:19;;;;;;;12.80;3.13;;;;;;;2.60;93.72;96252.81;5045983;28;20048;-83
2021/10/23 00:27:44;;;;;;;7.05;2.65;;;;;;;2.64;93.06;96257.59;5049936;28;20438;-83
2021/10/23 00:30:10;;;;;;;5.78;2.70;;;;;;;2.60;94.22;96263.19;5032196;28;20048;-84
2021/10/23 00:32:38;;;;;;;6.88;2.60;;;;;;;2.49;94.73;96261.19;5057682;28;20048;-83
2021/10/23 00:35:05;;;;;;;6.30;2.83;;;;;;;2.55;94.44;96275.19;5036896;28;20671;-85
2021/10/23 00:37:30;;;;;;;5.55;2.67;;;;;;;2.56;93.72;96264.59;5050993;28;20047;-85
2021/10/23 00:39:56;;;;;;;7.13;2.70;;;;;;;2.48;94.27;96277.78;5074624;28;20041;-83
2021/10/23 00:42:22;;;;;;;8.95;2.42;;;;;;;2.50;94.52;96262.81;5051498;28;20061;-84
2021/10/23 00:44:47;;;;;;;9.45;2.67;;;;;;;2.55;93.73;96255.19;5044156;28;20045;-84
2021/10/23 00:47:17;;;;;;;9.88;2.75;;;;;;;2.51;94.17;96253.97;5068137;28;20102;-83
2021/10/23 00:49:44;;;;;;;7.88;2.75;;;;;;;2.46;93.92;96261.59;5060993;28;20090;-85
2021/10/23 00:52:10;;;;;;;9.98;2.90;;;;;;;2.47;94.40;96258.00;5074409;28;20053;-84
2021/10/23 00:54:38;;;;;;;8.63;2.88;;;;;;;2.52;94.41;96265.19;5040470;28;20457;-84
2021/10/23 00:57:04;;;;;;;8.55;2.75;;;;;;;2.46;94.49;96271.97;5039903;28;20044;-85
2021/10/23 00:59:30;;;;;;;10.45;3.17;;;;;;;2.39;94.42;96287.56;5056082;28;20064;-84
2021/10/23 01:01:56;;;;;;;10.23;2.95;;;;;;;2.47;94.25;96273.59;5054001;28;20420;-84
2021/10/23 01:04:23;;;;;;;8.35;2.53;;;;;;;2.50;94.16;96278.38;5069179;28;20057;-85
2021/10/23 01:06:50;;;;;;;8.23;3.10;;;;;;;2.48;94.03;96277.78;5038481;28;20387;-85
2021/10/23 01:09:17;;;;;;;6.35;2.50;;;;;;;2.41;94.57;96276.97;5038017;28;20071;-84
2021/10/23 01:11:44;;;;;;;7.35;2.45;;;;;;;2.36;94.58;96276.78;5038808;28;20049;-84
2021/10/23 01:14:20;;;;;;;8.18;3.10;;;;;;;2.22;95.05;96281.94;5042781;28;20406;-84
2021/10/23 01:16:48;;;;;;;10.05;3.00;;;;;;;2.25;94.84;96281.53;5023401;28;20049;-85
2021/10/23 01:19:14;;;;;;;9.32;2.85;;;;;;;2.24;94.85;96282.56;5041118;28;20048;-84
2021/10/23 01:21:41;;;;;;;6.35;2.95;;;;;;;2.28;94.41;96279.56;5045019;28;20041;-84
2021/10/23 01:24:08;;;;;;;14.80;3.38;;;;;;;2.31;95.16;96284.34;5075686;28;20052;-84
2021/10/23 01:26:35;;;;;;;7.95;2.50;;;;;;;2.30;95.07;96272.34;5050549;28;20041;-83
2021/10/23 01:29:02;;;;;;;8.68;3.28;;;;;;;2.42;94.30;96286.38;5033074;28;20045;-84
2021/10/23 01:31:28;;;;;;;6.60;2.90;;;;;;;2.42;94.70;96281.97;5023216;28;20049;-83
2021/10/23 01:33:55;;;;;;;7.60;2.83;;;;;;;2.42;94.37;96279.38;5040851;28;20049;-83
2021/10/23 01:36:21;;;;;;;9.50;3.25;;;;;;;2.40;94.00;96277.97;5046504;28;20040;-84
2021/10/23 01:38:47;;;;;;;5.57;2.70;;;;;;;2.48;93.51;96285.56;5062740;28;20041;-82
2021/10/23 01:41:14;;;;;;;9.90;2.95;;;;;;;2.52;93.76;96286.78;5050726;28;20037;-82
2021/10/23 01:43:40;;;;;;;6.45;3.00;;;;;;;2.47;93.66;96283.97;5060429;28;20586;-82
2021/10/23 01:46:07;;;;;;;8.75;2.80;;;;;;;2.53;93.50;96283.19;5041206;28;20045;-82
2021/10/23 01:48:34;;;;;;;9.95;3.25;;;;;;;2.59;93.55;96291.97;5070964;28;20051;-82
2021/10/23 01:50:59;;;;;;;7.03;2.95;;;;;;;2.55;92.91;96288.19;5037629;28;20045;-82
2021/10/23 01:53:25;;;;;;;8.82;3.20;;;;;;;2.51;93.23;96279.19;5062476;28;20098;-82
2021/10/23 01:55:54;;;;;;;10.13;2.85;;;;;;;2.48;93.12;96285.56;5035319;28;20041;-82
2021/10/23 01:58:20;;;;;;;8.93;2.83;;;;;;;2.46;93.63;96282.38;5046822;28;20472;-82
2021/10/23 02:00:46;;;;;;;7.50;2.78;;;;;;;2.39;93.51;96289.38;5050277;28;20045;-82
2021/10/23 02:03:12;;;;;;;11.32;3.33;;;;;;;2.47;93.20;96286.59;5057071;28;20498;-82
2021/10/23 02:05:38;;;;;;;8.25;3.13;;;;;;;2.48;93.41;96285.56;5050345;28;20041;-82
2021/10/23 02:08:04;;;;;;;6.78;2.58;;;;;;;2.41;93.53;96279.56;5032831;28;20045;-83
2021/10/23 02:10:32;;;;;;;7.53;2.85;;;;;;;2.39;92.86;96286.75;5026724;28;20104;-83
2021/10/23 02:12:57;;;;;;;7.10;2.78;;;;;;;2.37;93.42;96280.94;5069110;28;20052;-83
2021/10/23 02:15:23;;;;;;;9.02;2.92;;;;;;;2.35;93.15;96277.75;5037500;28;20040;-82
2021/10/23 02:17:49;;;;;;;9.60;3.10;;;;;;;2.28;93.88;96288.13;5032482;28;20033;-82
2021/10/23 02:20:14;;;;;;;7.50;2.55;;;;;;;2.14;94.33;96276.94;5051014;28;20041;-83
2021/10/23 02:22:40;;;;;;;6.47;3.00;;;;;;;1.99;94.36;96291.88;5057979;28;20033;-83
2021/10/23 02:25:07;;;;;;;7.30;2.97;;;;;;;1.83;94.97;96291.22;5041786;28;20045;-84
2021/10/23 02:27:33;;;;;;;13.48;3.00;;;;;;;1.80;95.60;96293.41;5013244;28;20045;-83
2021/10/23 02:29:59;;;;;;;10.40;2.97;;;;;;;1.83;94.93;96288.63;5032180;28;20052;-84
2021/10/23 02:32:25;;;;;;;5.72;2.50;;;;;;;1.60;96.39;96298.53;5019419;28;20033;-84
2021/10/23 02:34:50;;;;;;;8.80;2.80;;;;;;;1.47;96.65;96300.06;5052167;28;20453;-83
2021/10/23 02:37:16;;;;;;;8.25;2.55;;;;;;;1.41;96.61;96298.22;5052717;28;20051;-83
2021/10/23 02:39:41;;;;;;;9.02;2.88;;;;;;;1.43;97.08;96304.00;5060609;28;20491;-83
2021/10/23 02:42:07;;;;;;;13.10;3.10;;;;;;;1.45;97.21;96304.66;5035596;28;20570;-82
2021/10/23 02:44:33;;;;;;;12.20;2.92;;;;;;;1.50;96.21;96304.84;5059017;28;20051;-82
2021/10/23 02:46:59;;;;;;;4.75;2.42;;;;;;;1.55;96.98;96307.69;5027628;28;20041;-82
2021/10/23 02:49:24;;;;;;;10.10;2.80;;;;;;;1.61;97.53;96320.84;5039059;28;20518;-83
2021/10/23 02:51:50;;;;;;;7.68;2.72;;;;;;;1.74;96.95;96310.56;5048783;28;20124;-82
2021/10/23 02:54:15;;;;;;;10.68;3.20;;;;;;;1.93;96.42;96308.25;5049067;28;20040;-82
2021/10/23 02:56:41;;;;;;;8.52;2.78;;;;;;;2.02;95.35;96315.63;5031802;28;20045;-83
2021/10/23 02:59:07;;;;;;;9.73;2.75;;;;;;;2.17;94.98;96320.69;5034631;28;20047;-82
2021/10/23 03:01:32;;;;;;;8.00;2.70;;;;;;;2.15;96.87;96317.47;5048684;28;20510;-81
2021/10/23 03:03:58;;;;;;;5.80;2.72;;;;;;;2.20;95.91;96315.09;5051612;28;20064;-82
2021/10/23 03:06:24;;;;;;;7.50;2.80;;;;;;;2.32;95.08;96312.72;5032561;28;20073;-82
2021/10/23 03:08:49;;;;;;;8.75;2.90;;;;;;;2.38;95.15;96321.53;5033578;28;20064;-81
2021/10/23 03:11:15;;;;;;;12.93;3.05;;;;;;;2.50;94.29;96314.75;5069059;28;20068;-82
2021/10/23 03:13:41;;;;;;;8.50;2.85;;;;;;;2.59;94.12;96323.97;5051451;28;20783;-82
2021/10/23 03:16:08;;;;;;;6.88;2.55;;;;;;;2.50;95.76;96324.34;5041946;28;20048;-83
2021/10/23 03:18:34;;;;;;;9.63;2.90;;;;;;;2.39;96.17;96333.53;5049120;28;20065;-81
2021/10/23 03:21:00;;;;;;;9.10;3.00;;;;;;;2.36;96.77;96342.50;5063500;28;20113;-83
2021/10/23 03:23:25;;;;;;;6.35;2.53;;;;;;;2.49;97.31;96343.53;5038982;28;20041;-83
2021/10/23 03:25:51;;;;;;;7.40;2.80;;;;;;;2.63;95.63;96339.16;5032018;28;20052;-84
2021/10/23 03:28:17;;;;;;;6.40;2.70;;;;;;;2.57;95.86;96344.16;5012008;28;20125;-83
2021/10/23 03:30:43;;;;;;;8.60;2.60;;;;;;;2.63;95.71;96328.75;5060017;28;20514;-82
2021/10/23 03:33:08;;;;;;;9.48;2.60;;;;;;;2.70;95.39;96339.94;5025809;28;20463;-83
2021/10/23 03:35:34;;;;;;;8.30;2.47;;;;;;;2.74;96.19;96348.97;5053344;28;20416;-83
2021/10/23 03:38:00;;;;;;;6.70;2.58;;;;;;;2.80;95.08;96345.56;5069830;28;20051;-83
2021/10/23 03:40:26;;;;;;;5.50;2.50;;;;;;;2.91;94.66;96352.75;5038293;28;20033;-84
2021/10/23 03:42:51;;;;;;;8.48;2.65;;;;;;;2.89;94.44;96349.56;5048912;28;20526;-83
2021/10/23 03:45:17;;;;;;;8.45;2.55;;;;;;;2.93;95.02;96342.97;5050241;28;20048;-83
2021/10/23 03:47:42;;;;;;;6.80;2.38;;;;;;;2.94;93.70;96347.19;5011825;28;20056;-83
2021/10/23 03:50:09;;;;;;;4.75;2.20;;;;;;;2.94;93.94;96347.19;5022522;28;20102;-83
2021/10/23 03:52:35;;;;;;;6.95;2.45;;;;;;;3.03;93.63;96357.38;5016885;28;20503;-83
2021/10/23 03:55:01;;;;;;;8.93;2.83;;;;;;;3.09;93.39;96354.00;5047074;28;20075;-83
2021/10/23 03:57:27;;;;;;;9.55;2.65;;;;;;;3.07;93.10;96345.56;5029034;28;20045;-83
2021/10/23 03:59:52;;;;;;;9.90;2.58;;;;;;;3.07;93.46;96361.16;5039280;28;20090;-83
2021/10/23 04:02:18;;;;;;;10.10;2.30;;;;;;;3.08;93.06;96347.97;5048860;28;20061;-83
2021/10/23 04:04:43;;;;;;;8.05;2.50;;;;;;;3.08;93.12;96373.97;5043021;28;20044;-83
2021/10/23 04:07:09;;;;;;;8.43;3.00;;;;;;;3.12;92.80;96358.78;5035766;28;20045;-83
2021/10/23 04:09:34;;;;;;;7.63;2.53;;;;;;;3.19;92.40;96364.78;5028180;28;20410;-83
2021/10/23 04:12:00;;;;;;;10.15;2.30;;;;;;;3.14;92.15;96361.97;5048947;28;20052;-83
2021/10/23 04:14:26;;;;;;;7.18;2.40;;;;;;;3.19;92.21;96362.19;5021979;28;20095;-82
2021/10/23 04:16:51;;;;;;;5.00;2.20;;;;;;;3.14;91.99;96371.59;5021165;28;20041;-82
2021/10/23 04:19:17;;;;;;;8.20;2.53;;;;;;;3.19;91.65;96364.78;5021962;28;20106;-82
2021/10/23 04:21:42;;;;;;;8.13;2.45;;;;;;;3.22;91.98;96374.78;5055381;28;20114;-83
2021/10/23 04:24:09;;;;;;;11.68;2.53;;;;;;;3.26;91.40;96370.78;5027369;28;20746;-82
2021/10/23 04:26:36;;;;;;;7.35;2.40;;;;;;;3.33;91.78;96380.38;5054867;28;20037;-83
2021/10/23 04:29:02;;;;;;;8.13;2.10;;;;;;;3.30;91.04;96371.16;5037984;28;20045;-83
2021/10/23 04:31:28;;;;;;;6.60;2.50;;;;;;;3.39;91.63;96379.56;5044591;28;20407;-83
2021/10/23 04:33:53;;;;;;;5.95;2.35;;;;;;;3.41;91.00;96382.78;5046910;28;20038;-83
2021/10/23 04:36:19;;;;;;;7.40;2.60;;;;;;;3.38;91.06;96377.97;5055255;28;20091;-83
2021/10/23 04:38:45;;;;;;;6.15;2.17;;;;;;;3.33;91.10;96375.16;5063784;28;20048;-82
2021/10/23 04:41:11;;;;;;;4.60;2.33;;;;;;;3.31;91.13;96375.38;5040514;28;20061;-82
2021/10/23 04:43:36;;;;;;;6.07;2.50;;;;;;;3.36;91.25;96379.97;5069389;28;20119;-81
2021/10/23 04:46:02;;;;;;;7.30;2.55;;;;;;;3.24;91.71;96377.97;5052871;28;20461;-82
2021/10/23 04:48:28;;;;;;;11.05;2.70;;;;;;;3.32;91.64;96373.56;5073345;28;20072;-83
2021/10/23 04:50:53;;;;;;;11.65;2.42;;;;;;;3.39;90.85;96380.38;5075527;28;20044;-83
2021/10/23 04:53:19;;;;;;;9.18;2.90;;;;;;;3.41;91.26;96377.56;5055481;28;20041;-83
2021/10/23 04:55:44;;;;;;;10.13;2.50;;;;;;;3.39;90.83;96380.38;5037494;28;20570;-83
2021/10/23 04:58:10;;;;;;;7.35;2.67;;;;;;;3.40;90.83;96381.16;5063428;28;20091;-83
2021/10/23 05:00:36;;;;;;;4.70;2.28;;;;;;;3.37;90.77;96381.56;5084298;28;20490;-83
2021/10/23 05:03:02;;;;;;;5.47;2.40;;;;;;;3.44;91.03;96384.97;5055853;28;20045;-82
2021/10/23 05:05:28;;;;;;;6.20;2.60;;;;;;;3.38;90.99;96377.97;5090817;28;20052;-82
2021/10/23 05:07:54;;;;;;;6.25;2.55;;;;;;;3.37;91.68;96384.97;5059458;28;20038;-81
2021/10/23 05:10:19;;;;;;;8.07;2.75;;;;;;;3.46;90.68;96390.75;5046828;28;20041;-82
2021/10/23 05:12:45;;;;;;;7.72;2.45;;;;;;;3.48;90.71;96388.78;5048673;28;20485;-81
2021/10/23 05:15:11;;;;;;;9.02;2.55;;;;;;;3.43;91.07;96391.16;5062962;28;20037;-82
2021/10/23 05:17:37;;;;;;;6.00;2.70;;;;;;;3.51;90.79;96398.78;5040030;28;20045;-81
2021/10/23 05:20:05;;;;;;;7.13;2.35;;;;;;;3.53;90.31;96391.53;5071122;28;20585;-81
2021/10/23 05:22:31;;;;;;;7.15;2.50;;;;;;;3.51;90.35;96398.78;5069202;28;20041;-82
2021/10/23 05:24:57;;;;;;;7.55;2.75;;;;;;;3.46;91.63;96395.97;5062098;28;20433;-82
2021/10/23 05:27:22;;;;;;;6.07;2.20;;;;;;;3.51;91.04;96388.34;5067246;28;20051;-82
2021/10/23 05:29:47;;;;;;;7.18;2.38;;;;;;;3.44;90.54;96393.56;5034435;28;20045;-82
2021/10/23 05:32:13;;;;;;;5.10;2.70;;;;;;;3.52;90.26;96394.34;5051590;28;20045;-82
2021/10/23 05:34:39;;;;;;;10.35;2.45;;;;;;;3.44;91.18;96392.78;5062746;28;20048;-82
2021/10/23 05:37:05;;;;;;;13.63;2.40;;;;;;;3.42;91.67;96394.75;5036892;28;20519;-82
2021/10/23 05:39:30;;;;;;;13.10;2.50;;;;;;;3.54;90.83;96400.19;5048478;28;20033;-82
2021/10/23 05:41:56;;;;;;;7.03;2.17;;;;;;;3.55;90.04;96394.75;5054199;28;20040;-82
2021/10/23 05:44:22;;;;;;;4.10;2.03;;;;;;;3.56;90.23;96403.34;5054547;28;20509;-82
2021/10/23 05:46:47;;;;;;;5.60;2.53;;;;;;;3.55;90.65;96399.16;5038636;28;20048;-82
2021/10/23 05:49:13;;;;;;;7.60;2.53;;;;;;;3.54;90.50;96402.78;5044139;28;20052;-82
2021/10/23 05:51:38;;;;;;;6.75;2.50;;;;;;;3.46;91.53;96401.16;5065049;28;20479;-81
2021/10/23 05:54:04;;;;;;;4.78;2.45;;;;;;;3.49;90.57;96399.97;5052487;28;20052;-82
2021/10/23 05:56:30;;;;;;;9.27;2.63;;;;;;;3.47;90.95;96413.19;5070153;28;20036;-82
2021/10/23 05:59:01;;;;;;;6.18;2.38;;;;;;;3.57;90.33;96400.56;5014824;28;20426;-81
2021/10/23 06:01:27;;;;;;;7.18;2.40;;;;;;;3.41;91.62;96406.19;5039263;28;20045;-82
2021/10/23 06:03:53;;;;;;;9.02;2.80;;;;;;;3.55;90.37;96405.16;5042954;28;20044;-82
2021/10/23 06:06:18;;;;;;;5.68;2.53;;;;;;;3.59;90.01;96416.78;5059025;28;20076;-81
2021/10/23 06:08:44;;;;;;;4.93;2.03;;;;;;;3.60;91.03;96423.56;5050798;28;20048;-81
2021/10/23 06:11:10;;;;;;;10.13;2.45;;;;;;;3.59;91.19;96422.00;5031549;28;20049;-82
2021/10/23 06:13:36;;;;;;;7.35;2.45;;;;;;;3.63;90.56;96425.78;5054545;28;20586;-82
2021/10/23 06:16:01;;;;;;;6.47;2.42;;;;;;;3.70;90.62;96422.38;5029692;28;20041;-82
2021/10/23 06:18:27;;;;;;;4.95;2.30;;;;;;;3.73;89.77;96432.38;5063859;28;20049;-81
2021/10/23 06:20:53;;;;;;;6.75;2.30;;;;;;;3.71;90.42;96429.19;5032778;28;20446;-82
2021/10/23 06:23:18;;;;;;;5.50;2.13;;;;;;;3.73;90.47;96427.16;5031887;28;20421;-82
2021/10/23 06:25:44;;;;;;;6.05;2.28;;;;;;;3.73;90.19;96427.16;5060628;28;20086;-82
2021/10/23 06:28:10;;;;;;;5.35;2.15;;;;;;;3.79;90.03;96431.56;5020694;28;20101;-81
2021/10/23 06:30:35;;;;;;;10.35;2.50;;;;;;;3.80;90.08;96428.75;5035480;28;20116;-81
2021/10/23 06:33:01;;;;;;;9.60;2.40;;;;;;;3.70;90.35;96438.00;5040505;28;20049;-81
2021/10/23 06:35:26;;;;;;;6.88;2.50;;;;;;;3.68;91.51;96442.59;5030940;28;20050;-81
2021/10/23 06:37:52;;;;;;;7.05;2.20;;;;;;;3.71;91.50;96444.81;5056224;28;20317;-81
2021/10/23 06:40:20;;;;;;;6.05;2.42;;;;;;;3.89;89.82;96447.56;5041020;28;20045;-81
2021/10/23 06:42:46;;;;;;;10.43;2.45;;;;;;;4.02;89.34;96448.53;5048908;28;20048;-82
2021/10/23 06:45:14;;;;;;;7.97;2.53;;;;;;;4.07;88.90;96448.75;5036116;28;20045;-82
2021/10/23 06:47:40;;;;;;;7.07;2.42;;;;;;;4.09;88.45;96449.31;5055266;28;20050;-80
2021/10/23 06:50:09;;;;;;;3.67;2.03;;;;;;;4.11;88.78;96455.16;5061207;28;20111;-81
2021/10/23 06:52:35;;;;;;;7.78;2.10;;;;;;;4.14;89.80;96459.94;5060767;28;20055;-80
2021/10/23 06:55:01;;;;;;;4.57;2.20;;;;;;;4.14;89.46;96454.72;5049659;28;20042;-81
2021/10/23 06:57:26;;;;;;;7.88;2.13;;;;;;;4.12;89.94;96454.13;5029344;28;20052;-81
2021/10/23 06:59:52;;;;;;;4.05;2.30;;;;;;;4.32;88.55;96465.31;5023619;28;20483;-82
2021/10/23 07:02:17;;;;;;;8.15;2.38;;;;;;;4.41;88.11;96472.88;5055647;28;20045;-81
2021/10/23 07:04:43;;;;;;;7.72;2.35;;;;;;;4.45;88.69;96476.66;5052990;28;20041;-81
2021/10/23 07:07:09;;;;;;;8.00;2.35;;;;;;;4.45;88.27;96471.47;5045289;28;20037;-82
2021/10/23 07:09:35;;;;;;;6.38;2.40;;;;;;;4.63;88.23;96479.41;5045627;28;20040;-82
2021/10/23 07:12:01;;;;;;;12.00;2.20;;;;;;;4.51;88.68;96487.09;5062700;28;20055;-82
2021/10/23 07:14:27;;;;;;;6.88;2.20;;;;;;;4.71;87.26;96482.78;5051420;28;20124;-82
2021/10/23 07:16:52;;;;;;;5.80;2.25;;;;;;;4.85;86.89;96492.16;5035892;28;20041;-82
2021/10/23 07:19:18;;;;;;;3.53;1.80;;;;;;;4.97;85.48;96495.69;5032494;28;20041;-81
2021/10/23 07:21:44;;;;;;;10.40;2.33;;;;;;;4.99;87.28;96487.66;5037924;28;20611;-82
2021/10/23 07:24:09;;;;;;;10.75;2.17;;;;;;;5.03;86.65;96500.06;5063773;28;20040;-82
2021/10/23 07:26:37;;;;;;;6.47;2.00;;;;;;;5.14;85.91;96506.44;5019268;28;20093;-81
2021/10/23 07:29:04;;;;;;;5.80;1.90;;;;;;;5.18;85.73;96506.81;5060556;28;20049;-81
2021/10/23 07:31:29;;;;;;;8.23;2.33;;;;;;;5.23;85.45;96509.59;5066855;28;20044;-82
2021/10/23 07:33:55;;;;;;;3.72;2.13;;;;;;;5.27;86.66;96508.19;5047823;28;20041;-82
2021/10/23 07:36:21;;;;;;;9.52;2.22;;;;;;;5.40;85.82;96503.88;5027717;28;20036;-82
2021/10/23 07:38:47;;;;;;;5.07;1.90;;;;;;;5.52;84.54;96517.84;5041732;28;20058;-81
2021/10/23 07:41:13;;;;;;;9.57;2.22;;;;;;;5.51;85.40;96516.25;5045799;28;20041;-82
2021/10/23 07:43:38;;;;;;;7.88;2.28;;;;;;;5.56;84.70;96524.25;5038500;28;20052;-82
2021/10/23 07:46:04;;;;;;;10.30;2.83;;;;;;;5.60;85.37;96525.41;5031956;28;20041;-82
2021/10/23 07:48:29;;;;;;;6.70;2.08;;;;;;;5.69;84.13;96529.38;5049092;28;20482;-82
2021/10/23 07:50:55;;;;;;;8.60;2.30;;;;;;;5.60;84.79;96525.41;5035651;28;20506;-81
2021/10/23 07:53:21;;;;;;;7.20;2.65;;;;;;;5.61;84.31;96539.28;5068841;28;20055;-82
2021/10/23 07:55:47;;;;;;;4.93;2.03;;;;;;;5.76;83.59;96538.94;5051050;28;20118;-82
2021/10/23 07:58:13;;;;;;;6.25;2.17;;;;;;;5.90;83.88;96533.44;5058652;28;20056;-82
2021/10/23 08:00:39;;;;;;;6.75;2.22;;;;;;;5.94;84.03;96552.06;5034954;28;20086;-81
2021/10/23 08:03:04;;;;;;;10.10;2.75;;;;;;;5.93;85.49;96550.47;5059818;28;20068;-82
2021/10/23 08:05:35;;;;;;;9.18;2.45;;;;;;;5.96;84.38;96550.06;5058125;28;20107;-82
2021/10/23 08:08:04;;;;;;;11.32;2.78;;;;;;;6.17;84.18;96553.31;5060959;28;20080;-82
2021/10/23 08:10:30;;;;;;;8.00;2.70;;;;;;;6.31;82.63;96562.63;5066476;28;20040;-81
2021/10/23 08:12:58;;;;;;;8.23;2.22;;;;;;;6.26;84.29;96562.47;5039145;28;20456;-82
2021/10/23 08:15:25;;;;;;;11.18;2.72;;;;;;;6.26;82.14;96559.84;5029346;28;20049;-82
2021/10/23 08:17:53;;;;;;;8.35;2.08;;;;;;;6.42;81.15;96558.50;5033294;28;20433;-82
2021/10/23 08:20:19;;;;;;;7.60;2.63;;;;;;;6.41;80.71;96552.47;5056796;28;20049;-82
2021/10/23 08:22:44;;;;;;;5.32;2.17;;;;;;;6.49;81.36;96548.75;5048779;28;20498;-82
2021/10/23 08:25:12;;;;;;;10.80;2.40;;;;;;;6.75;79.26;96542.47;5047540;28;20068;-82
2021/10/23 08:27:39;;;;;;;9.98;2.20;;;;;;;6.92;79.51;96544.47;5053271;28;20096;-80
2021/10/23 08:30:07;;;;;;;11.35;2.40;;;;;;;6.86;81.28;96547.97;5062489;28;20124;-81
2021/10/23 08:32:32;;;;;;;7.57;2.50;;;;;;;6.89;78.62;96534.44;5067261;28;20044;-82
2021/10/23 08:34:59;;;;;;;7.47;2.38;;;;;;;7.21;76.04;96515.91;5031017;28;20525;-81
2021/10/23 08:37:25;;;;;;;11.65;2.55;;;;;;;7.03;78.23;96512.31;5031025;28;20040;-82
2021/10/23 08:39:51;;;;;;;11.43;2.20;;;;;;;7.17;75.11;96523.41;5050674;28;20037;-82
2021/10/23 08:42:17;;;;;;;15.07;2.65;;;;;;;7.03;77.69;96512.31;5046268;28;20045;-81
2021/10/23 08:44:44;;;;;;;7.30;2.42;;;;;;;7.11;76.95;96514.63;5052812;28;20045;-81
2021/10/23 08:47:11;;;;;;;5.97;2.30;;;;;;;6.83;77.19;96509.16;5040819;28;20033;-81
2021/10/23 08:49:38;;;;;;;10.73;2.80;;;;;;;6.79;79.05;96502.78;5052219;28;20438;-82
2021/10/23 08:52:03;;;;;;;11.38;2.42;;;;;;;7.14;76.61;96517.81;5065490;28;20530;-81
2021/10/23 08:54:34;;;;;;;7.70;2.00;;;;;;;7.14;76.65;96512.59;5045110;28;20124;-81
2021/10/23 08:57:01;;;;;;;9.07;2.05;;;;;;;7.16;76.06;96523.66;5026680;28;20040;-82
2021/10/23 08:59:27;;;;;;;9.88;2.88;;;;;;;6.90;77.01;96517.75;5053419;28;20044;-80
2021/10/23 09:01:57;;;;;;;7.65;2.40;;;;;;;6.89;77.12;96521.38;5053323;28;20048;-81
2021/10/23 09:04:30;;;;;;;7.53;2.28;;;;;;;6.88;78.04;96525.00;5058272;28;20032;-82
2021/10/23 09:07:09;;;;;;;7.70;2.53;;;;;;;6.92;77.61;96520.91;5056128;28;20041;-82
2021/10/23 09:09:49;;;;;;;7.90;2.10;;;;;;;7.30;75.15;96525.06;5061178;28;20038;-83
2021/10/23 09:12:35;;;;;;;6.95;2.35;;;;;;;7.08;77.50;96528.16;5035251;28;20041;-83
2021/10/23 09:15:03;;;;;;;6.93;2.30;;;;;;;7.44;74.65;96523.03;5049997;28;20752;-83
2021/10/23 09:17:29;;;;;;;8.77;2.22;;;;;;;7.20;75.28;96514.34;5047750;28;20041;-85
2021/10/23 09:19:57;;;;;;;5.25;2.20;;;;;;;7.42;74.88;96518.03;5055360;28;20043;-85
2021/10/23 09:22:32;;;;;;;7.15;2.33;;;;;;;7.42;74.71;96515.41;5035807;28;20115;-83
2021/10/23 09:25:16;;;;;;;5.93;2.05;;;;;;;7.85;76.11;96518.00;5031860;28;20099;-82
2021/10/23 09:27:54;;;;;;;8.32;2.30;;;;;;;8.14;72.51;96517.06;5016650;28;20038;-84
2021/10/23 09:30:24;;;;;;;6.53;2.30;;;;;;;8.33;72.20;96524.81;5032794;28;20090;-82
2021/10/23 09:32:52;;;;;;;7.45;2.50;;;;;;;8.63;71.71;96510.78;5014280;28;20053;-83
2021/10/23 09:35:19;;;;;;;8.43;2.38;;;;;;;8.92;72.32;96516.06;5041224;28;20049;-81
2021/10/23 09:37:45;;;;;;;11.48;2.60;;;;;;;9.13;70.76;96512.78;5023771;28;20041;-83
2021/10/23 09:40:18;;;;;;;6.32;1.95;;;;;;;9.40;68.65;96514.84;5057665;28;20044;-80
2021/10/23 09:42:44;;;;;;;9.57;2.30;;;;;;;9.72;69.45;96509.03;5034192;28;20045;-83
2021/10/23 09:45:10;;;;;;;5.90;2.00;;;;;;;10.48;64.57;96515.69;5031910;28;20446;-82
2021/10/23 09:47:43;;;;;;;9.85;2.28;;;;;;;9.96;64.90;96503.63;5031738;28;20122;-80
2021/10/23 09:50:20;;;;;;;6.57;2.40;;;;;;;11.24;62.02;96515.75;5033221;28;20057;-82
2021/10/23 09:53:05;;;;;;;9.70;2.17;;;;;;;12.64;56.00;96513.09;5050235;28;20100;-80
2021/10/23 09:55:35;;;;;;;6.05;1.90;;;;;;;12.69;55.24;96514.19;5042202;28;20045;-81
2021/10/23 09:58:08;;;;;;;7.97;2.13;;;;;;;12.45;56.45;96514.56;5032107;28;20064;-82
2021/10/23 10:00:34;;;;;;;9.25;2.10;;;;;;;11.10;60.26;96517.19;5031727;28;20041;-82
2021/10/23 10:03:00;;;;;;;10.05;2.40;;;;;;;10.30;62.05;96508.81;5030606;28;20045;-81
2021/10/23 10:05:29;;;;;;;9.00;2.45;;;;;;;11.34;61.58;96506.38;5013513;28;20111;-81
2021/10/23 10:07:56;;;;;;;6.63;2.00;;;;;;;12.21;57.13;96499.16;5033158;28;20041;-82
2021/10/23 10:10:22;;;;;;;4.88;2.00;;;;;;;10.99;61.99;96518.13;5032824;28;20563;-81
2021/10/23 10:12:48;;;;;;;4.53;2.00;;;;;;;12.51;57.42;96510.91;5041186;28;20056;-79
2021/10/23 10:15:14;;;;;;;7.30;2.30;;;;;;;12.38;57.29;96509.50;5022996;28;20037;-79
2021/10/23 10:17:41;;;;;;;8.32;2.30;;;;;;;12.41;56.00;96506.38;5047438;28;20411;-80
2021/10/23 10:20:11;;;;;;;5.47;2.22;;;;;;;11.08;59.76;96514.00;5050985;28;20048;-79
2021/10/23 10:22:49;;;;;;;7.15;2.50;;;;;;;11.05;59.97;96519.78;5042238;28;20099;-79
2021/10/23 10:25:18;;;;;;;6.68;2.20;;;;;;;12.24;57.82;96525.03;5031137;28;20045;-78
2021/10/23 10:27:45;;;;;;;5.72;2.10;;;;;;;11.71;57.13;96516.97;5047336;28;20051;-80
2021/10/23 10:30:29;;;;;;;8.98;2.45;;;;;;;10.50;61.19;96514.41;5050589;28;20120;-82
2021/10/23 10:33:22;;;;;;;7.57;2.40;;;;;;;10.40;63.65;96524.78;5051096;28;20087;-80
2021/10/23 10:36:41;;;;;;;5.30;2.10;;;;;;;12.32;57.36;96520.31;5043527;28;20564;-81
2021/10/23 10:39:39;;;;;;;9.13;1.95;;;;;;;13.65;51.26;96510.19;5030260;28;20057;-83
2021/10/23 10:45:48;;;;;;;6.00;2.20;;;;;;;13.77;50.53;96503.84;5033057;28;20050;-82
2021/10/23 10:48:25;;;;;;;7.05;1.95;;;;;;;15.39;48.94;96500.13;5052169;28;20166;-84
2021/10/23 10:50:55;;;;;;;5.65;1.90;;;;;;;15.10;44.71;96494.75;5034945;28;20045;-81
2021/10/23 10:53:31;;;;;;;7.60;2.50;;;;;;;12.58;53.39;96508.81;5032272;28;20175;-82
2021/10/23 10:56:03;;;;;;;10.95;2.92;;;;;;;11.18;57.58;96503.56;5049002;28;20582;-82
2021/10/23 10:58:47;;;;;;;9.90;2.85;;;;;;;10.79;59.59;96505.50;5052674;28;20048;-84
2021/10/23 11:01:22;;;;;;;11.98;2.92;;;;;;;10.96;60.24;96508.06;5034172;28;20415;-81
2021/10/23 11:04:08;;;;;;;6.75;2.42;;;;;;;13.05;54.95;96499.22;5023933;28;20045;-81
2021/10/23 11:06:34;;;;;;;5.47;2.28;;;;;;;13.72;53.02;96509.94;5030047;28;20041;-81
2021/10/23 11:09:11;;;;;;;6.88;2.67;;;;;;;14.78;49.85;96503.13;5030478;28;20049;-81
2021/10/23 11:14:24;;;;;;;;;;;;;;;12.86;51.16;96504.19;5045420;28;20075;-80
2021/10/23 11:16:52;;;;;;;6.32;2.30;;;;;;;11.38;52.93;96502.97;5033412;28;19921;-81
2021/10/23 11:19:29;;;;;;;7.75;2.20;;;;;;;12.61;51.54;96505.69;5040813;28;20068;-80
2021/10/23 11:22:00;;;;;;;5.97;2.40;;;;;;;14.06;50.00;96498.00;5039806;28;20045;-79
2021/10/23 11:24:42;;;;;;;13.10;2.80;;;;;;;14.01;48.97;96491.66;5030439;28;20824;-80
2021/10/23 11:27:42;;;;;;;6.07;2.42;;;;;;;14.45;47.01;96489.44;5049502;28;20049;-79
2021/10/23 11:30:29;;;;;;;8.25;2.20;;;;;;;14.53;46.16;96483.59;5021415;28;20091;-81
2021/10/23 11:33:03;;;;;;;8.57;2.20;;;;;;;12.82;52.72;96482.00;5037513;28;20049;-82
2021/10/23 11:35:40;;;;;;;4.65;2.40;;;;;;;12.77;50.23;96492.53;5039956;28;20048;-80
2021/10/23 11:38:08;;;;;;;7.88;2.17;;;;;;;12.27;50.97;96497.34;5049648;28;20147;-83
2021/10/23 11:40:35;;;;;;;6.13;2.03;;;;;;;11.54;50.95;96496.00;5034093;28;20185;-82
2021/10/23 11:43:01;;;;;;;4.45;1.88;;;;;;;12.82;47.84;96490.69;5029149;28;20074;-82
2021/10/23 11:45:30;;;;;;;6.32;1.73;;;;;;;12.95;48.96;96486.78;5043721;28;20065;-81
2021/10/23 11:48:01;;;;;;;5.05;2.13;;;;;;;14.67;45.47;96489.13;5016308;28;20045;-82